createdAt,value
2022-12-06T04:11:16.892Z,5.375
2022-12-06T04:14:16.368Z,6.550000000000001
2022-12-06T04:18:21.988Z,14.0125
2022-12-06T04:43:42.095Z,10.962499999999999
2022-12-06T04:44:16.308Z,5.025
2022-12-06T04:47:16.771Z,4.6125
2022-12-06T04:51:16.528Z,5.3875
2022-12-06T04:54:16.298Z,4.612500000000001
2022-12-06T04:57:16.851Z,6.8125
2022-12-06T05:01:16.394Z,9.7625
2022-12-06T05:04:16.647Z,10.6875
2022-12-06T05:07:16.588Z,7.7125
2022-12-06T05:11:16.592Z,6.5
2022-12-06T05:14:16.991Z,7.199999999999999
2022-12-06T05:17:16.844Z,3.4625
2022-12-06T05:21:20.448Z,9.05
2022-12-06T05:24:17.269Z,6.199999999999999
2022-12-06T05:27:17.044Z,11.9375
2022-12-06T05:31:16.697Z,4.1125
2022-12-06T05:34:16.511Z,4.6000000000000005
2022-12-06T05:37:16.456Z,7.9
2022-12-06T05:41:17.540Z,7.2124999999999995
2022-12-06T05:44:17.067Z,8.8
2022-12-06T05:47:16.671Z,10.3625
2022-12-06T05:51:17.014Z,9.825
2022-12-06T05:54:17.393Z,14.9125
2022-12-06T05:57:17.113Z,8.475
2022-12-06T06:01:16.129Z,15
2022-12-06T06:04:16.592Z,10.175
2022-12-06T06:07:16.461Z,5.7875
2022-12-06T06:11:16.276Z,10.3125
2022-12-06T06:14:16.868Z,4.9625
2022-12-06T06:17:17.180Z,14.212499999999999
2022-12-06T06:21:16.807Z,12.287500000000001
2022-12-06T06:24:16.992Z,10.587499999999999
2022-12-06T06:27:17.096Z,7.925
2022-12-06T06:31:16.534Z,7.8125
2022-12-06T06:34:16.594Z,9.2875
2022-12-06T06:37:16.254Z,14.55
2022-12-06T06:41:16.209Z,8.2
2022-12-06T06:44:16.737Z,12.3625
2022-12-06T06:47:16.468Z,12.7125
2022-12-06T06:51:16.241Z,11.649999999999999
2022-12-06T06:54:16.713Z,12.025
2022-12-06T06:57:18.059Z,9.649999999999999
2022-12-06T07:01:18.032Z,9.850000000000001
2022-12-06T07:04:17.160Z,10.85
2022-12-06T07:07:20.999Z,10.7
2022-12-06T07:11:16.209Z,8.575
2022-12-06T07:14:16.387Z,7.725
2022-12-06T07:17:16.498Z,4.625
2022-12-06T07:21:17.110Z,9.8
2022-12-06T07:24:17.033Z,10.325
2022-12-06T07:27:17.127Z,11.2375
2022-12-06T07:31:19.921Z,4.05
2022-12-06T07:34:17.148Z,10
2022-12-06T07:37:19.273Z,8.2375
2022-12-06T07:51:15.812Z,6.35
2022-12-06T07:54:16.927Z,4.3375
2022-12-06T07:57:16.340Z,5.1375
2022-12-06T08:01:18.036Z,10.8625
2022-12-06T08:04:19.004Z,9.0625
2022-12-06T08:07:17.845Z,6.9
2022-12-06T08:11:16.858Z,5.3375
2022-12-06T08:14:17.180Z,5.0375
2022-12-06T08:17:17.126Z,2.2625
2022-12-06T08:21:16.773Z,14.675
2022-12-06T08:24:16.328Z,4.825
2022-12-06T08:27:16.272Z,6.8
2022-12-06T08:31:20.324Z,7.699999999999999
2022-12-06T08:34:17.468Z,8.775
2022-12-06T08:37:17.160Z,6.050000000000001
2022-12-06T08:42:25.175Z,6.725
2022-12-06T08:44:18.275Z,4.5875
2022-12-06T08:47:16.641Z,5.5875
2022-12-06T08:51:16.670Z,6.487499999999999
2022-12-06T08:54:18.889Z,5.5875
2022-12-06T08:57:17.273Z,8.399999999999999
2022-12-06T09:01:18.558Z,8.65
2022-12-06T09:04:17.038Z,4.0375
2022-12-06T09:07:16.700Z,10.9375
2022-12-06T09:11:17.974Z,6.0625
2022-12-06T09:14:21.826Z,7.512499999999999
2022-12-06T09:17:17.582Z,17.2625
2022-12-06T09:21:19.906Z,9.175
2022-12-06T09:24:18.147Z,6.6
2022-12-06T09:27:18.915Z,6.925
2022-12-06T09:31:17.460Z,8.1375
2022-12-06T09:34:17.242Z,11.575000000000001
2022-12-06T09:37:16.801Z,6.9625
2022-12-06T09:41:31.904Z,9.0875
2022-12-06T09:44:34.771Z,5.5875
2022-12-06T09:47:28.422Z,8.5625
2022-12-06T09:51:27.804Z,7.7875
2022-12-06T09:54:33.694Z,5.1625000000000005
2022-12-06T09:57:23.131Z,6.825
2022-12-06T10:01:28.275Z,12.0625
2022-12-06T10:04:37.754Z,7.8500000000000005
2022-12-06T10:07:27.810Z,11.1
2022-12-06T10:11:30.073Z,9.962499999999999
2022-12-06T10:14:30.826Z,2.9
2022-12-06T10:17:27.874Z,11.025
2022-12-06T10:21:25.175Z,7.7875000000000005
2022-12-06T10:24:31.456Z,7.0375
2022-12-06T10:27:23.157Z,7.65
2022-12-06T10:31:22.280Z,6.95
2022-12-06T10:34:21.087Z,8.5625
2022-12-06T10:37:31.322Z,9.175
2022-12-06T10:41:22.724Z,6.2875
2022-12-06T10:44:24.509Z,5.2749999999999995
2022-12-06T10:47:22.509Z,8.512500000000001
2022-12-06T10:51:21.128Z,10.1125
2022-12-06T10:54:25.839Z,12.037500000000001
2022-12-06T10:57:23.136Z,9.0625
2022-12-06T11:01:21.016Z,8.575
2022-12-06T11:04:24.131Z,4.637499999999999
2022-12-06T11:07:21.806Z,7.6
2022-12-06T11:11:19.089Z,10.575
2022-12-06T11:14:23.204Z,8.4875
2022-12-06T11:17:20.993Z,6.125
2022-12-06T11:21:23.637Z,6.275
2022-12-06T11:24:22.960Z,8.475000000000001
2022-12-06T11:27:21.792Z,8.8375
2022-12-06T11:31:25.957Z,7.5125
2022-12-06T11:34:27.045Z,11
2022-12-06T11:37:18.944Z,3.9499999999999997
2022-12-06T11:41:21.260Z,5.949999999999999
2022-12-06T11:44:22.351Z,7.550000000000001
2022-12-06T11:47:20.956Z,13.3125
2022-12-06T11:51:20.163Z,6.4
2022-12-06T11:54:25.345Z,9.9
2022-12-06T11:57:22.635Z,3.375
2022-12-06T12:01:16.076Z,6.75
2022-12-06T12:04:33.747Z,11.037500000000001
2022-12-06T12:07:22.202Z,8.15
2022-12-06T12:11:20.271Z,11.1875
2022-12-06T12:14:23.702Z,14.7375
2022-12-06T12:17:20.697Z,7.8125
2022-12-06T12:21:27.474Z,7.175000000000001
2022-12-06T12:25:19.222Z,6.112500000000001
2022-12-06T12:27:33.659Z,4.3374999999999995
2022-12-06T12:31:18.032Z,8.3125
2022-12-06T12:34:19.772Z,11.7625
2022-12-06T12:37:20.731Z,5.725
2022-12-06T12:41:28.519Z,13.4625
2022-12-06T12:44:37.716Z,4.5375
2022-12-06T12:47:18.493Z,12.15
2022-12-06T12:51:25.786Z,15.100000000000001
2022-12-06T12:54:24.090Z,10.424999999999999
2022-12-06T12:57:16.450Z,10.6
2022-12-06T13:01:27.535Z,11.45
2022-12-06T13:04:37.430Z,11.575000000000001
2022-12-06T13:07:21.079Z,7.1875
2022-12-06T13:11:15.980Z,8.675
2022-12-06T13:14:19.490Z,14.7
2022-12-06T13:17:18.024Z,5.025
2022-12-06T13:21:21.466Z,12.5875
2022-12-06T13:24:23.001Z,8.625
2022-12-06T13:27:20.017Z,11.95
2022-12-06T13:31:20.132Z,6.5
2022-12-06T13:34:23.817Z,7.449999999999999
2022-12-06T13:37:36.467Z,12.875
2022-12-06T13:42:39.043Z,10.575
2022-12-06T13:44:39.130Z,14.325
2022-12-06T13:47:50.158Z,5.425000000000001
2022-12-06T13:51:43.164Z,10.5125
2022-12-06T13:54:32.522Z,11.7875
2022-12-06T13:57:23.990Z,21.75
2022-12-06T14:11:20.097Z,13.325
2022-12-06T14:14:18.268Z,8.25
2022-12-06T14:17:38.191Z,8.9875
2022-12-06T14:21:22.101Z,11.3375
2022-12-06T14:24:34.363Z,11.3125
2022-12-06T14:27:19.191Z,13.85
2022-12-06T14:31:22.171Z,19.950000000000003
2022-12-06T14:34:24.708Z,11.8875
2022-12-06T14:37:20.940Z,17.7125
2022-12-06T14:51:23.263Z,25.2
2022-12-06T14:54:17.853Z,17.6
2022-12-06T14:57:24.278Z,18.2375
2022-12-06T15:01:21.243Z,13.412500000000001
2022-12-06T15:04:25.386Z,17.3375
2022-12-06T15:07:32.456Z,27.637500000000003
2022-12-06T15:13:05.220Z,11.2625
2022-12-06T15:14:18.777Z,16.1125
2022-12-06T15:17:18.144Z,13.3375
2022-12-06T15:21:17.059Z,14.475000000000001
2022-12-06T15:24:18.691Z,15.975000000000001
2022-12-06T15:27:17.598Z,9.850000000000001
2022-12-06T15:31:20.390Z,13.700000000000001
2022-12-06T15:34:24.880Z,14.5625
2022-12-06T15:37:39.050Z,10.9875
2022-12-06T15:41:18.103Z,17.575000000000003
2022-12-06T15:44:18.345Z,17.55
2022-12-06T15:47:17.344Z,12.175
2022-12-06T15:51:21.100Z,49.1125
2022-12-06T15:54:19.996Z,25.7375
2022-12-06T15:57:17.228Z,34.8375
2022-12-06T16:01:19.324Z,18.4
2022-12-06T16:04:18.920Z,20.262500000000003
2022-12-06T16:07:19.431Z,6.5
2022-12-06T16:11:19.010Z,20.125
2022-12-06T16:14:16.426Z,11.05
2022-12-06T16:17:16.472Z,8.4375
2022-12-06T16:21:23.119Z,29.9375
2022-12-06T16:24:17.064Z,14.3125
2022-12-06T16:27:16.901Z,21.5125
2022-12-06T16:31:16.694Z,16.5375
2022-12-06T16:34:17.992Z,8.037500000000001
2022-12-06T16:37:18.077Z,32.2125
2022-12-06T16:41:19.858Z,22.425
2022-12-06T16:44:16.798Z,39.462500000000006
2022-12-06T16:47:16.804Z,25.575
2022-12-06T16:51:16.192Z,19.5375
2022-12-06T16:54:16.870Z,27.85
2022-12-06T16:57:16.615Z,76.5875
2022-12-06T17:01:23.671Z,44.8125
2022-12-06T17:04:17.984Z,47.400000000000006
2022-12-06T17:07:17.494Z,39.037499999999994
2022-12-06T17:12:21.255Z,41.325
2022-12-06T17:14:17.843Z,22.0375
2022-12-06T17:17:19.159Z,19.299999999999997
2022-12-06T17:21:17.382Z,15.337499999999999
2022-12-06T17:24:18.532Z,11.7125
2022-12-06T17:27:17.103Z,9.1875
2022-12-06T17:31:16.449Z,18.8625
2022-12-06T17:34:17.554Z,14.2125
2022-12-06T17:37:16.922Z,16.237499999999997
2022-12-06T17:51:16.238Z,18.212500000000002
2022-12-06T17:54:17.164Z,14.5
2022-12-06T17:57:18.664Z,13.837499999999999
2022-12-06T18:01:16.884Z,22.525000000000002
2022-12-06T18:04:17.158Z,12.3625
2022-12-06T18:07:17.493Z,14.299999999999999
2022-12-06T18:11:18.542Z,17.6125
2022-12-06T18:14:17.464Z,13.0375
2022-12-06T18:17:17.070Z,10.125
2022-12-06T18:21:17.940Z,17.4625
2022-12-06T18:24:22.722Z,17.700000000000003
2022-12-06T18:27:17.716Z,9.375
2022-12-06T18:31:17.111Z,14.0125
2022-12-06T18:34:17.081Z,11.2375
2022-12-06T18:37:16.840Z,18.025
2022-12-06T18:41:18.362Z,15.1
2022-12-06T18:44:16.831Z,23.1
2022-12-06T18:47:16.423Z,12.75
2022-12-06T18:51:18.924Z,12.287500000000001
2022-12-06T18:54:16.997Z,12.8
2022-12-06T18:57:16.831Z,13.7625
2022-12-06T19:01:18.532Z,20.137500000000003
2022-12-06T19:04:18.849Z,24.6875
2022-12-06T19:07:19.386Z,19.1
2022-12-06T19:11:19.252Z,25.925
2022-12-06T19:14:16.345Z,26.0625
2022-12-06T19:17:16.263Z,13.662500000000001
2022-12-06T19:21:17.152Z,10.1
2022-12-06T19:24:18.977Z,12.3125
2022-12-06T19:27:20.455Z,20.775
2022-12-06T19:31:16.886Z,19.3375
2022-12-06T19:34:18.830Z,29.9
2022-12-06T19:37:17.564Z,15.087500000000002
2022-12-06T19:41:17.309Z,26.012500000000003
2022-12-06T19:44:16.313Z,19.0875
2022-12-06T19:47:16.718Z,19.924999999999997
2022-12-06T19:51:16.702Z,20.65
2022-12-06T19:54:19.317Z,18.3375
2022-12-06T19:57:16.658Z,15.487499999999999
2022-12-06T20:01:18.750Z,27.6375
2022-12-06T20:04:18.304Z,14.100000000000001
2022-12-06T20:07:16.507Z,20.4
2022-12-06T20:12:03.621Z,28.075
2022-12-06T20:14:18.042Z,21.975
2022-12-06T20:17:19.479Z,23.8
2022-12-06T20:21:16.835Z,20.1375
2022-12-06T20:24:19.143Z,24.2
2022-12-06T20:27:16.985Z,15.462499999999999
2022-12-06T20:31:19.153Z,15.799999999999999
2022-12-06T20:34:18.118Z,11.2375
2022-12-06T20:37:16.870Z,8.1125
2022-12-06T20:41:19.829Z,18.1875
2022-12-06T20:44:17.688Z,15.45
2022-12-06T20:47:17.700Z,19.425
2022-12-06T20:51:19.906Z,18.3125
2022-12-06T20:54:18.338Z,20.987499999999997
2022-12-06T20:57:17.265Z,17.487499999999997
2022-12-06T21:01:20.275Z,23.1875
2022-12-06T21:04:17.073Z,23.5125
2022-12-06T21:07:17.234Z,22.9875
2022-12-06T21:11:23.131Z,23.1
2022-12-06T21:14:17.261Z,19.6875
2022-12-06T21:17:16.832Z,16.6
2022-12-06T21:21:20.991Z,19.2625
2022-12-06T21:24:19.464Z,13.9625
2022-12-06T21:27:17.091Z,16.65
2022-12-06T21:31:16.886Z,19.3875
2022-12-06T21:34:17.977Z,18.5125
2022-12-06T21:37:17.199Z,14.037500000000001
2022-12-06T21:41:17.088Z,13.875
2022-12-06T21:44:17.293Z,17.1
2022-12-06T21:47:17.145Z,13.3125
2022-12-06T21:51:17.627Z,14.7
2022-12-06T21:54:16.980Z,11.5875
2022-12-06T21:57:16.997Z,16.7
2022-12-06T22:01:19.129Z,12.600000000000001
2022-12-06T22:04:16.690Z,18.0875
2022-12-06T22:07:16.823Z,15.1125
2022-12-06T22:11:18.332Z,15.7625
2022-12-06T22:14:16.362Z,19.4375
2022-12-06T22:17:16.355Z,26.0625
2022-12-06T22:21:18.633Z,18.8125
2022-12-06T22:24:16.969Z,16.2375
2022-12-06T22:27:16.650Z,8.875
2022-12-06T22:31:18.585Z,11.087499999999999
2022-12-06T22:34:16.073Z,10.4875
2022-12-06T22:37:16.078Z,16.7875
2022-12-06T22:41:17.239Z,16.912499999999998
2022-12-06T22:44:18.137Z,25.2125
2022-12-06T22:47:16.858Z,12.287500000000001
2022-12-06T22:51:17.804Z,12.325
2022-12-06T22:54:16.777Z,13.087499999999999
2022-12-06T22:57:16.264Z,14.7625
2022-12-06T23:01:19.909Z,11.05
2022-12-06T23:04:16.935Z,9.65
2022-12-06T23:07:16.849Z,17.275000000000002
2022-12-06T23:11:18.450Z,11.8875
2022-12-06T23:14:16.853Z,11.475
2022-12-06T23:17:16.774Z,13.4625
2022-12-06T23:21:19.019Z,14.875
2022-12-06T23:24:17.040Z,13.7375
2022-12-06T23:27:17.482Z,12.8125
2022-12-06T23:31:18.668Z,13.1125
2022-12-06T23:34:19.486Z,16.225
2022-12-06T23:37:16.458Z,16.3
2022-12-06T23:41:23.959Z,9.725
2022-12-06T23:44:22.187Z,7.25
2022-12-06T23:47:22.040Z,16.025000000000002
2022-12-06T23:51:19.032Z,10.3
2022-12-06T23:54:17.714Z,12.8625
2022-12-06T23:57:16.644Z,10.7375
